sensor_id;sensor_type;location;lat;lon;timestamp;pressure;altitude;pressure_sealevel;temperature;humidity
31357;BME280;60001;48.404;11.738;2022-07-04T00:01:18;96390.53;;;21.26;59.55
31357;BME280;60001;48.404;11.738;2022-07-04T00:02:51;96403.38;;;21.29;58.65
31357;BME280;60001;48.404;11.738;2022-07-04T00:04:22;96404.19;;;21.29;58.49
31357;BME280;60001;48.404;11.738;2022-07-04T00:05:53;96414.59;;;21.31;58.91
31357;BME280;60001;48.404;11.738;2022-07-04T00:07:25;96420.44;;;21.33;58.53
31357;BME280;60001;48.404;11.738;2022-07-04T00:08:59;96430.06;;;21.34;58.72
31357;BME280;60001;48.404;11.738;2022-07-04T00:10:31;96426.59;;;21.33;58.71
31357;BME280;60001;48.404;11.738;2022-07-04T00:12:02;96426.28;;;21.35;58.85
31357;BME280;60001;48.404;11.738;2022-07-04T00:13:34;96420.59;;;21.37;59.03
31357;BME280;60001;48.404;11.738;2022-07-04T00:15:07;96409.53;;;21.38;58.75
31357;BME280;60001;48.404;11.738;2022-07-04T00:16:39;96402.72;;;21.41;58.28
31357;BME280;60001;48.404;11.738;2022-07-04T00:18:11;96394.66;;;21.41;58.42
31357;BME280;60001;48.404;11.738;2022-07-04T00:19:43;96393.25;;;21.43;58.20
31357;BME280;60001;48.404;11.738;2022-07-04T00:21:18;96399.09;;;21.45;58.53
31357;BME280;60001;48.404;11.738;2022-07-04T00:22:50;96402.88;;;21.44;59.41
31357;BME280;60001;48.404;11.738;2022-07-04T00:24:22;96406.19;;;21.41;59.50
31357;BME280;60001;48.404;11.738;2022-07-04T00:25:54;96401.00;;;21.36;59.80
31357;BME280;60001;48.404;11.738;2022-07-04T00:27:26;96402.28;;;21.30;60.99
31357;BME280;60001;48.404;11.738;2022-07-04T00:28:57;96404.44;;;21.19;61.93
31357;BME280;60001;48.404;11.738;2022-07-04T00:30:29;96406.03;;;21.12;62.24
31357;BME280;60001;48.404;11.738;2022-07-04T00:32:01;96425.78;;;21.07;62.78
31357;BME280;60001;48.404;11.738;2022-07-04T00:33:33;96431.63;;;21.00;63.99
31357;BME280;60001;48.404;11.738;2022-07-04T00:35:05;96423.72;;;20.95;64.70
31357;BME280;60001;48.404;11.738;2022-07-04T00:36:37;96432.72;;;20.91;65.03
31357;BME280;60001;48.404;11.738;2022-07-04T00:38:09;96420.25;;;20.86;65.99
31357;BME280;60001;48.404;11.738;2022-07-04T00:39:41;96434.28;;;20.83;65.66
31357;BME280;60001;48.404;11.738;2022-07-04T00:41:16;96438.41;;;20.80;66.26
31357;BME280;60001;48.404;11.738;2022-07-04T00:42:48;96428.59;;;20.76;66.84
31357;BME280;60001;48.404;11.738;2022-07-04T00:44:19;96432.38;;;20.75;66.31
31357;BME280;60001;48.404;11.738;2022-07-04T00:45:51;96443.91;;;20.75;66.78
31357;BME280;60001;48.404;11.738;2022-07-04T00:47:23;96445.81;;;20.75;66.77
31357;BME280;60001;48.404;11.738;2022-07-04T00:48:55;96448.47;;;20.75;67.88
31357;BME280;60001;48.404;11.738;2022-07-04T00:50:27;96453.84;;;20.75;67.46
31357;BME280;60001;48.404;11.738;2022-07-04T00:51:59;96445.81;;;20.75;67.63
31357;BME280;60001;48.404;11.738;2022-07-04T00:53:31;96445.34;;;20.73;67.56
31357;BME280;60001;48.404;11.738;2022-07-04T00:55:06;96444.22;;;20.74;68.19
31357;BME280;60001;48.404;11.738;2022-07-04T00:56:40;96440.25;;;20.71;68.08
31357;BME280;60001;48.404;11.738;2022-07-04T00:58:13;96441.88;;;20.72;68.48
31357;BME280;60001;48.404;11.738;2022-07-04T00:59:45;96433.00;;;20.72;68.49
31357;BME280;60001;48.404;11.738;2022-07-04T01:01:17;96431.91;;;20.73;67.60
31357;BME280;60001;48.404;11.738;2022-07-04T01:02:48;96429.84;;;20.70;69.08
31357;BME280;60001;48.404;11.738;2022-07-04T01:04:20;96431.75;;;20.69;68.65
31357;BME280;60001;48.404;11.738;2022-07-04T01:05:52;96431.41;;;20.71;68.50
31357;BME280;60001;48.404;11.738;2022-07-04T01:07:24;96421.00;;;20.69;68.74
31357;BME280;60001;48.404;11.738;2022-07-04T01:08:56;96424.63;;;20.65;69.17
31357;BME280;60001;48.404;11.738;2022-07-04T01:10:30;96430.16;;;20.68;68.81
31357;BME280;60001;48.404;11.738;2022-07-04T01:12:02;96425.13;;;20.67;69.25
31357;BME280;60001;48.404;11.738;2022-07-04T01:13:34;96419.56;;;20.63;69.87
31357;BME280;60001;48.404;11.738;2022-07-04T01:15:07;96405.38;;;20.63;70.27
31357;BME280;60001;48.404;11.738;2022-07-04T01:16:39;96415.50;;;20.66;69.93
31357;BME280;60001;48.404;11.738;2022-07-04T01:18:11;96409.81;;;20.67;70.08
31357;BME280;60001;48.404;11.738;2022-07-04T01:19:42;96416.09;;;20.71;69.48
31357;BME280;60001;48.404;11.738;2022-07-04T01:21:28;96419.28;;;20.73;69.33
31357;BME280;60001;48.404;11.738;2022-07-04T01:23:00;96409.66;;;20.72;68.98
31357;BME280;60001;48.404;11.738;2022-07-04T01:24:32;96420.06;;;20.74;69.66
31357;BME280;60001;48.404;11.738;2022-07-04T01:26:04;96415.50;;;20.74;69.60
31357;BME280;60001;48.404;11.738;2022-07-04T01:27:36;96415.97;;;20.76;69.75
31357;BME280;60001;48.404;11.738;2022-07-04T01:29:07;96425.59;;;20.77;68.94
31357;BME280;60001;48.404;11.738;2022-07-04T01:30:39;96429.06;;;20.78;69.38
31357;BME280;60001;48.404;11.738;2022-07-04T01:32:12;96446.44;;;20.80;68.71
31357;BME280;60001;48.404;11.738;2022-07-04T01:33:43;96449.91;;;20.81;68.27
31357;BME280;60001;48.404;11.738;2022-07-04T01:35:15;96462.56;;;20.80;68.59
31357;BME280;60001;48.404;11.738;2022-07-04T01:36:48;96463.94;;;20.78;68.82
31357;BME280;60001;48.404;11.738;2022-07-04T01:38:21;96461.91;;;20.75;68.23
31357;BME280;60001;48.404;11.738;2022-07-04T01:39:53;96458.75;;;20.73;68.00
31357;BME280;60001;48.404;11.738;2022-07-04T01:41:24;96453.38;;;20.73;68.57
31357;BME280;60001;48.404;11.738;2022-07-04T01:42:57;96451.00;;;20.71;67.93
31357;BME280;60001;48.404;11.738;2022-07-04T01:44:29;96447.84;;;20.69;68.37
31357;BME280;60001;48.404;11.738;2022-07-04T01:46:00;96460.00;;;20.67;68.04
31357;BME280;60001;48.404;11.738;2022-07-04T01:47:32;96450.66;;;20.64;68.12
31357;BME280;60001;48.404;11.738;2022-07-04T01:49:04;96438.66;;;20.62;68.35
31357;BME280;60001;48.404;11.738;2022-07-04T01:50:37;96432.84;;;20.60;68.23
31357;BME280;60001;48.404;11.738;2022-07-04T01:52:10;96433.63;;;20.60;68.59
31357;BME280;60001;48.404;11.738;2022-07-04T01:53:42;96430.44;;;20.58;69.01
31357;BME280;60001;48.404;11.738;2022-07-04T01:55:13;96427.28;;;20.56;68.86
31357;BME280;60001;48.404;11.738;2022-07-04T01:56:45;96433.44;;;20.57;69.48
31357;BME280;60001;48.404;11.738;2022-07-04T01:58:16;96428.06;;;20.57;69.49
31357;BME280;60001;48.404;11.738;2022-07-04T01:59:48;96417.34;;;20.57;69.45
31357;BME280;60001;48.404;11.738;2022-07-04T02:01:37;96408.84;;;20.55;69.46
31357;BME280;60001;48.404;11.738;2022-07-04T02:03:09;96417.66;;;20.55;68.88
31357;BME280;60001;48.404;11.738;2022-07-04T02:04:41;96420.53;;;20.59;69.10
31357;BME280;60001;48.404;11.738;2022-07-04T02:06:13;96412.47;;;20.59;69.31
31357;BME280;60001;48.404;11.738;2022-07-04T02:07:46;96417.84;;;20.59;69.05
31357;BME280;60001;48.404;11.738;2022-07-04T02:09:18;96424.00;;;20.59;69.52
31357;BME280;60001;48.404;11.738;2022-07-04T02:10:49;96415.44;;;20.57;69.34
31357;BME280;60001;48.404;11.738;2022-07-04T02:12:21;96417.34;;;20.57;69.86
31357;BME280;60001;48.404;11.738;2022-07-04T02:14:10;96414.97;;;20.55;69.91
31357;BME280;60001;48.404;11.738;2022-07-04T02:15:41;96419.88;;;20.53;69.70
31357;BME280;60001;48.404;11.738;2022-07-04T02:17:13;96413.72;;;20.52;69.86
31357;BME280;60001;48.404;11.738;2022-07-04T02:18:44;96428.72;;;20.53;69.50
31357;BME280;60001;48.404;11.738;2022-07-04T02:20:16;96433.91;;;20.50;69.98
31357;BME280;60001;48.404;11.738;2022-07-04T02:21:48;96426.16;;;20.48;69.82
31357;BME280;60001;48.404;11.738;2022-07-04T02:23:21;96430.75;;;20.48;69.83
31357;BME280;60001;48.404;11.738;2022-07-04T02:24:53;96428.84;;;20.48;70.23
31357;BME280;60001;48.404;11.738;2022-07-04T02:26:25;96434.22;;;20.48;70.07
31357;BME280;60001;48.404;11.738;2022-07-04T02:27:56;96443.06;;;20.49;69.74
31357;BME280;60001;48.404;11.738;2022-07-04T02:29:28;96433.09;;;20.49;69.58
31357;BME280;60001;48.404;11.738;2022-07-04T02:30:58;96423.97;;;20.50;70.01
31357;BME280;60001;48.404;11.738;2022-07-04T02:32:30;96429.03;;;20.52;69.96
31357;BME280;60001;48.404;11.738;2022-07-04T02:34:01;96424.47;;;20.52;69.72
31357;BME280;60001;48.404;11.738;2022-07-04T02:35:33;96423.97;;;20.50;70.19
31357;BME280;60001;48.404;11.738;2022-07-04T02:37:05;96428.25;;;20.51;70.18
31357;BME280;60001;48.404;11.738;2022-07-04T02:38:38;96425.06;;;20.49;70.22
31357;BME280;60001;48.404;11.738;2022-07-04T02:40:10;96429.31;;;20.50;70.18
31357;BME280;60001;48.404;11.738;2022-07-04T02:41:44;96433.59;;;20.51;70.18
31357;BME280;60001;48.404;11.738;2022-07-04T02:43:15;96430.44;;;20.49;70.79
31357;BME280;60001;48.404;11.738;2022-07-04T02:44:47;96435.00;;;20.49;70.80
31357;BME280;60001;48.404;11.738;2022-07-04T02:46:19;96430.44;;;20.49;70.75
31357;BME280;60001;48.404;11.738;2022-07-04T02:47:50;96437.69;;;20.49;70.21
31357;BME280;60001;48.404;11.738;2022-07-04T02:49:22;96441.47;;;20.48;70.94
31357;BME280;60001;48.404;11.738;2022-07-04T02:50:54;96449.84;;;20.46;70.75
31357;BME280;60001;48.404;11.738;2022-07-04T02:52:25;96446.84;;;20.48;70.94
31357;BME280;60001;48.404;11.738;2022-07-04T02:53:59;96441.78;;;20.46;71.03
31357;BME280;60001;48.404;11.738;2022-07-04T02:55:30;96439.09;;;20.46;71.18
31357;BME280;60001;48.404;11.738;2022-07-04T02:57:02;96439.09;;;20.46;70.72
31357;BME280;60001;48.404;11.738;2022-07-04T02:58:34;96432.16;;;20.45;71.43
31357;BME280;60001;48.404;11.738;2022-07-04T03:00:07;96436.75;;;20.45;70.88
31357;BME280;60001;48.404;11.738;2022-07-04T03:01:38;96435.94;;;20.44;71.43
31357;BME280;60001;48.404;11.738;2022-07-04T03:03:10;96443.97;;;20.44;70.92
31357;BME280;60001;48.404;11.738;2022-07-04T03:04:42;96447.47;;;20.45;71.62
31357;BME280;60001;48.404;11.738;2022-07-04T03:06:14;96445.56;;;20.45;71.53
31357;BME280;60001;48.404;11.738;2022-07-04T03:07:45;96452.84;;;20.45;71.33
31357;BME280;60001;48.404;11.738;2022-07-04T03:09:19;96453.31;;;20.47;71.53
31357;BME280;60001;48.404;11.738;2022-07-04T03:10:50;96455.19;;;20.46;71.03
31357;BME280;60001;48.404;11.738;2022-07-04T03:12:21;96454.41;;;20.46;70.99
31357;BME280;60001;48.404;11.738;2022-07-04T03:13:53;96455.19;;;20.46;71.45
31357;BME280;60001;48.404;11.738;2022-07-04T03:15:25;96457.88;;;20.46;71.16
31357;BME280;60001;48.404;11.738;2022-07-04T03:16:56;96457.56;;;20.48;71.30
31357;BME280;60001;48.404;11.738;2022-07-04T03:18:28;96464.50;;;20.49;71.62
31357;BME280;60001;48.404;11.738;2022-07-04T03:19:59;96459.16;;;20.49;70.93
31357;BME280;60001;48.404;11.738;2022-07-04T03:21:31;96465.78;;;20.51;71.12
31357;BME280;60001;48.404;11.738;2022-07-04T03:23:03;96462.28;;;20.51;71.50
31357;BME280;60001;48.404;11.738;2022-07-04T03:24:36;96473.84;;;20.51;71.13
31357;BME280;60001;48.404;11.738;2022-07-04T03:26:11;96477.59;;;20.50;71.49
31357;BME280;60001;48.404;11.738;2022-07-04T03:27:42;96469.09;;;20.48;71.22
31357;BME280;60001;48.404;11.738;2022-07-04T03:29:13;96472.09;;;20.47;71.22
31357;BME280;60001;48.404;11.738;2022-07-04T03:30:45;96464.34;;;20.45;71.34
31357;BME280;60001;48.404;11.738;2022-07-04T03:32:16;96465.72;;;20.43;71.76
31357;BME280;60001;48.404;11.738;2022-07-04T03:33:48;96466.81;;;20.42;71.42
31357;BME280;60001;48.404;11.738;2022-07-04T03:35:19;96467.94;;;20.41;72.17
31357;BME280;60001;48.404;11.738;2022-07-04T03:36:51;96468.25;;;20.39;71.54
31357;BME280;60001;48.404;11.738;2022-07-04T03:38:23;96467.75;;;20.37;72.33
31357;BME280;60001;48.404;11.738;2022-07-04T03:39:56;96462.38;;;20.37;71.81
31357;BME280;60001;48.404;11.738;2022-07-04T03:41:28;96467.75;;;20.37;72.23
31357;BME280;60001;48.404;11.738;2022-07-04T03:43:00;96474.53;;;20.35;72.66
31357;BME280;60001;48.404;11.738;2022-07-04T03:44:32;96479.09;;;20.34;72.12
31357;BME280;60001;48.404;11.738;2022-07-04T03:46:04;96474.84;;;20.33;72.05
31357;BME280;60001;48.404;11.738;2022-07-04T03:47:36;96477.53;;;20.33;72.38
31357;BME280;60001;48.404;11.738;2022-07-04T03:49:08;96488.25;;;20.33;72.29
31357;BME280;60001;48.404;11.738;2022-07-04T03:50:40;96499.75;;;20.34;72.30
31357;BME280;60001;48.404;11.738;2022-07-04T03:52:12;96500.56;;;20.34;72.21
31357;BME280;60001;48.404;11.738;2022-07-04T03:53:43;96504.34;;;20.33;72.92
31357;BME280;60001;48.404;11.738;2022-07-04T03:55:17;96498.78;;;20.30;73.00
31357;BME280;60001;48.404;11.738;2022-07-04T03:56:49;96501.78;;;20.28;72.96
31357;BME280;60001;48.404;11.738;2022-07-04T03:58:20;96504.00;;;20.26;72.79
31357;BME280;60001;48.404;11.738;2022-07-04T03:59:51;96502.22;;;20.21;72.67
31357;BME280;60001;48.404;11.738;2022-07-04T04:01:22;96516.94;;;20.24;72.68
31357;BME280;60001;48.404;11.738;2022-07-04T04:02:54;96515.31;;;20.23;73.01
31357;BME280;60001;48.404;11.738;2022-07-04T04:04:26;96511.06;;;20.22;73.23
31357;BME280;60001;48.404;11.738;2022-07-04T04:06:16;96508.06;;;20.23;73.03
31357;BME280;60001;48.404;11.738;2022-07-04T04:07:46;96513.44;;;20.23;73.02
31357;BME280;60001;48.404;11.738;2022-07-04T04:09:21;96512.03;;;20.26;73.11
31357;BME280;60001;48.404;11.738;2022-07-04T04:10:56;96520.56;;;20.28;73.04
31357;BME280;60001;48.404;11.738;2022-07-04T04:12:28;96519.16;;;20.31;72.56
31357;BME280;60001;48.404;11.738;2022-07-04T04:14:00;96513.50;;;20.32;72.38
31357;BME280;60001;48.404;11.738;2022-07-04T04:15:31;96521.22;;;20.34;72.79
31357;BME280;60001;48.404;11.738;2022-07-04T04:17:03;96522.47;;;20.36;72.61
31357;BME280;60001;48.404;11.738;2022-07-04T04:18:35;96516.00;;;20.37;72.68
31357;BME280;60001;48.404;11.738;2022-07-04T04:20:08;96511.94;;;20.40;73.48
31357;BME280;60001;48.404;11.738;2022-07-04T04:21:40;96510.84;;;20.41;73.14
31357;BME280;60001;48.404;11.738;2022-07-04T04:23:12;96514.31;;;20.41;73.53
31357;BME280;60001;48.404;11.738;2022-07-04T04:24:44;96504.38;;;20.42;73.88
31357;BME280;60001;48.404;11.738;2022-07-04T04:26:16;96519.06;;;20.44;73.35
31357;BME280;60001;48.404;11.738;2022-07-04T04:27:48;96529.19;;;20.47;73.53
31357;BME280;60001;48.404;11.738;2022-07-04T04:29:19;96541.19;;;20.50;73.56
31357;BME280;60001;48.404;11.738;2022-07-04T04:30:51;96545.16;;;20.52;73.12
31357;BME280;60001;48.404;11.738;2022-07-04T04:32:23;96551.00;;;20.55;73.22
31357;BME280;60001;48.404;11.738;2022-07-04T04:33:55;96552.28;;;20.57;73.42
31357;BME280;60001;48.404;11.738;2022-07-04T04:35:27;96547.41;;;20.59;73.09
31357;BME280;60001;48.404;11.738;2022-07-04T04:36:59;96544.09;;;20.62;73.34
31357;BME280;60001;48.404;11.738;2022-07-04T04:38:31;96549.94;;;20.64;73.69
31357;BME280;60001;48.404;11.738;2022-07-04T04:40:03;96546.13;;;20.65;74.09
31357;BME280;60001;48.404;11.738;2022-07-04T04:41:37;96554.19;;;20.65;74.13
31357;BME280;60001;48.404;11.738;2022-07-04T04:43:08;96555.00;;;20.66;73.65
31357;BME280;60001;48.404;11.738;2022-07-04T04:44:40;96552.63;;;20.64;74.21
31357;BME280;60001;48.404;11.738;2022-07-04T04:46:11;96558.78;;;20.65;74.62
31357;BME280;60001;48.404;11.738;2022-07-04T04:47:43;96555.81;;;20.66;74.46
31357;BME280;60001;48.404;11.738;2022-07-04T04:49:15;96556.59;;;20.67;74.37
31357;BME280;60001;48.404;11.738;2022-07-04T04:50:47;96565.09;;;20.69;74.53
31357;BME280;60001;48.404;11.738;2022-07-04T04:52:19;96565.91;;;20.69;74.14
31357;BME280;60001;48.404;11.738;2022-07-04T04:53:51;96557.84;;;20.69;75.21
31357;BME280;60001;48.404;11.738;2022-07-04T04:55:23;96550.59;;;20.70;75.00
31357;BME280;60001;48.404;11.738;2022-07-04T04:56:56;96554.84;;;20.71;75.11
31357;BME280;60001;48.404;11.738;2022-07-04T04:58:28;96555.63;;;20.71;74.85
31357;BME280;60001;48.404;11.738;2022-07-04T04:59:59;96552.34;;;20.74;74.59
31357;BME280;60001;48.404;11.738;2022-07-04T05:01:31;96553.94;;;20.75;75.15
31357;BME280;60001;48.404;11.738;2022-07-04T05:03:03;96549.81;;;20.78;75.63
31357;BME280;60001;48.404;11.738;2022-07-04T05:04:35;96546.03;;;20.79;75.78
31357;BME280;60001;48.404;11.738;2022-07-04T05:06:10;96543.84;;;20.81;75.80
31357;BME280;60001;48.404;11.738;2022-07-04T05:07:41;96543.53;;;20.83;74.95
31357;BME280;60001;48.404;11.738;2022-07-04T05:09:13;96537.53;;;20.86;75.63
31357;BME280;60001;48.404;11.738;2022-07-04T05:10:44;96541.50;;;20.88;75.17
31357;BME280;60001;48.404;11.738;2022-07-04T05:12:18;96538.03;;;20.88;75.39
31357;BME280;60001;48.404;11.738;2022-07-04T05:13:49;96534.72;;;20.91;75.08
31357;BME280;60001;48.404;11.738;2022-07-04T05:15:21;96529.22;;;20.96;75.13
31357;BME280;60001;48.404;11.738;2022-07-04T05:16:53;96525.75;;;21.04;74.94
31357;BME280;60001;48.404;11.738;2022-07-04T05:18:25;96537.00;;;21.15;74.49
31357;BME280;60001;48.404;11.738;2022-07-04T05:19:57;96519.13;;;21.19;73.96
31357;BME280;60001;48.404;11.738;2022-07-04T05:21:28;96539.72;;;21.41;73.02
31357;BME280;60001;48.404;11.738;2022-07-04T05:23:01;96549.06;;;21.52;72.70
31357;BME280;60001;48.404;11.738;2022-07-04T05:24:34;96558.69;;;21.61;71.38
31357;BME280;60001;48.404;11.738;2022-07-04T05:26:05;96564.72;;;21.67;70.77
31357;BME280;60001;48.404;11.738;2022-07-04T05:27:46;96572.63;;;21.72;70.42
31357;BME280;60001;48.404;11.738;2022-07-04T05:29:18;96570.88;;;21.76;70.19
31357;BME280;60001;48.404;11.738;2022-07-04T05:30:50;96577.19;;;21.80;70.40
31357;BME280;60001;48.404;11.738;2022-07-04T05:32:22;96571.19;;;21.83;70.56
31357;BME280;60001;48.404;11.738;2022-07-04T05:33:54;96563.75;;;21.89;70.68
31357;BME280;60001;48.404;11.738;2022-07-04T05:35:26;96565.34;;;21.99;70.99
31357;BME280;60001;48.404;11.738;2022-07-04T05:36:58;96569.91;;;22.07;70.40
31357;BME280;60001;48.404;11.738;2022-07-04T05:38:30;96573.56;;;22.11;69.01
31357;BME280;60001;48.404;11.738;2022-07-04T05:40:03;96566.31;;;22.11;69.06
31357;BME280;60001;48.404;11.738;2022-07-04T05:41:35;96569.47;;;22.13;68.78
31357;BME280;60001;48.404;11.738;2022-07-04T05:43:08;96570.25;;;22.14;68.19
31357;BME280;60001;48.404;11.738;2022-07-04T05:44:40;96578.63;;;22.12;68.15
31357;BME280;60001;48.404;11.738;2022-07-04T05:46:12;96587.50;;;22.13;68.16
31357;BME280;60001;48.404;11.738;2022-07-04T05:47:44;96585.59;;;22.13;68.57
31357;BME280;60001;48.404;11.738;2022-07-04T05:49:15;96586.72;;;22.12;68.45
31357;BME280;60001;48.404;11.738;2022-07-04T05:50:46;96588.91;;;22.10;68.68
31357;BME280;60001;48.404;11.738;2022-07-04T05:52:18;96592.53;;;22.06;69.23
31357;BME280;60001;48.404;11.738;2022-07-04T05:53:50;96581.16;;;22.00;69.39
31357;BME280;60001;48.404;11.738;2022-07-04T05:55:22;96590.63;;;22.06;69.97
31357;BME280;60001;48.404;11.738;2022-07-04T05:56:54;96596.34;;;22.05;69.89
31357;BME280;60001;48.404;11.738;2022-07-04T05:58:27;96597.59;;;22.07;70.46
31357;BME280;60001;48.404;11.738;2022-07-04T05:59:59;96600.28;;;22.07;70.27
31357;BME280;60001;48.404;11.738;2022-07-04T06:01:30;96596.50;;;22.08;70.04
31357;BME280;60001;48.404;11.738;2022-07-04T06:03:02;96607.09;;;22.13;70.52
31357;BME280;60001;48.404;11.738;2022-07-04T06:04:34;96598.38;;;22.16;70.04
31357;BME280;60001;48.404;11.738;2022-07-04T06:06:06;96602.03;;;22.21;70.38
31357;BME280;60001;48.404;11.738;2022-07-04T06:07:46;96602.50;;;22.23;70.57
31357;BME280;60001;48.404;11.738;2022-07-04T06:09:18;96602.66;;;22.26;70.70
31357;BME280;60001;48.404;11.738;2022-07-04T06:10:50;96598.22;;;22.30;70.13
31357;BME280;60001;48.404;11.738;2022-07-04T06:12:22;96599.50;;;22.33;70.29
31357;BME280;60001;48.404;11.738;2022-07-04T06:13:55;96602.16;;;22.41;69.86
31357;BME280;60001;48.404;11.738;2022-07-04T06:15:27;96605.47;;;22.47;69.20
31357;BME280;60001;48.404;11.738;2022-07-04T06:16:59;96608.47;;;22.54;69.78
31357;BME280;60001;48.404;11.738;2022-07-04T06:18:31;96611.25;;;22.66;69.58
31357;BME280;60001;48.404;11.738;2022-07-04T06:20:02;96607.16;;;22.69;69.09
31357;BME280;60001;48.404;11.738;2022-07-04T06:21:34;96615.84;;;22.75;68.00
31357;BME280;60001;48.404;11.738;2022-07-04T06:23:06;96618.03;;;22.81;67.96
31357;BME280;60001;48.404;11.738;2022-07-04T06:24:38;96610.56;;;22.87;67.95
31357;BME280;60001;48.404;11.738;2022-07-04T06:26:12;96611.34;;;22.96;68.41
31357;BME280;60001;48.404;11.738;2022-07-04T06:27:45;96609.41;;;23.05;67.47
31357;BME280;60001;48.404;11.738;2022-07-04T06:29:18;96616.66;;;23.13;67.29
31357;BME280;60001;48.404;11.738;2022-07-04T06:30:50;96613.44;;;23.20;67.58
31357;BME280;60001;48.404;11.738;2022-07-04T06:32:22;96614.06;;;23.25;67.44
31357;BME280;60001;48.404;11.738;2022-07-04T06:33:54;96607.38;;;23.32;66.98
31357;BME280;60001;48.404;11.738;2022-07-04T06:35:43;96596.88;;;23.39;66.75
31357;BME280;60001;48.404;11.738;2022-07-04T06:37:19;96601.41;;;23.47;66.69
31357;BME280;60001;48.404;11.738;2022-07-04T06:38:51;96599.16;;;23.49;66.09
31357;BME280;60001;48.404;11.738;2022-07-04T06:40:23;96596.94;;;23.51;65.88
31357;BME280;60001;48.404;11.738;2022-07-04T06:41:53;96602.13;;;23.56;65.35
31357;BME280;60001;48.404;11.738;2022-07-04T06:43:25;96603.91;;;23.52;64.47
31357;BME280;60001;48.404;11.738;2022-07-04T06:44:59;96605.03;;;23.51;64.78
31357;BME280;60001;48.404;11.738;2022-07-04T06:46:30;96607.25;;;23.49;64.55
31357;BME280;60001;48.404;11.738;2022-07-04T06:48:04;96606.66;;;23.43;64.53
31357;BME280;60001;48.404;11.738;2022-07-04T06:49:36;96613.47;;;23.41;64.92
31357;BME280;60001;48.404;11.738;2022-07-04T06:51:11;96614.44;;;23.36;64.82
31357;BME280;60001;48.404;11.738;2022-07-04T06:52:44;96618.28;;;23.35;65.12
31357;BME280;60001;48.404;11.738;2022-07-04T06:54:15;96616.56;;;23.31;65.21
31357;BME280;60001;48.404;11.738;2022-07-04T06:55:47;96618.16;;;23.32;65.64
31357;BME280;60001;48.404;11.738;2022-07-04T06:57:19;96616.09;;;23.29;65.02
31357;BME280;60001;48.404;11.738;2022-07-04T06:58:51;96603.63;;;23.15;64.81
31357;BME280;60001;48.404;11.738;2022-07-04T07:00:25;96606.31;;;23.24;64.95
31357;BME280;60001;48.404;11.738;2022-07-04T07:01:57;96611.81;;;23.28;65.70
31357;BME280;60001;48.404;11.738;2022-07-04T07:03:29;96610.53;;;23.34;65.38
31357;BME280;60001;48.404;11.738;2022-07-04T07:05:01;96600.00;;;23.41;65.18
31357;BME280;60001;48.404;11.738;2022-07-04T07:06:33;96599.16;;;23.49;65.02
31357;BME280;60001;48.404;11.738;2022-07-04T07:08:04;96597.41;;;23.53;65.49
31357;BME280;60001;48.404;11.738;2022-07-04T07:09:36;96602.59;;;23.58;64.82
31357;BME280;60001;48.404;11.738;2022-07-04T07:12:54;96600.22;;;23.65;64.93
31357;BME280;60001;48.404;11.738;2022-07-04T07:14:26;96612.56;;;23.66;64.80
31357;BME280;60001;48.404;11.738;2022-07-04T07:15:59;96609.38;;;23.64;64.63
31357;BME280;60001;48.404;11.738;2022-07-04T07:17:30;96611.63;;;23.62;64.70
31357;BME280;60001;48.404;11.738;2022-07-04T07:19:02;96607.19;;;23.66;65.07
31357;BME280;60001;48.404;11.738;2022-07-04T07:20:34;96602.25;;;23.68;64.70
31357;BME280;60001;48.404;11.738;2022-07-04T07:22:06;96601.59;;;23.71;65.13
31357;BME280;60001;48.404;11.738;2022-07-04T07:23:38;96610.47;;;23.72;64.93
31357;BME280;60001;48.404;11.738;2022-07-04T07:25:11;96610.66;;;23.67;64.04
31357;BME280;60001;48.404;11.738;2022-07-04T07:26:43;96607.81;;;23.63;64.44
31357;BME280;60001;48.404;11.738;2022-07-04T07:28:15;96609.72;;;23.63;64.86
31357;BME280;60001;48.404;11.738;2022-07-04T07:29:46;96617.81;;;23.63;65.09
31357;BME280;60001;48.404;11.738;2022-07-04T07:31:26;96611.16;;;23.60;65.05
31357;BME280;60001;48.404;11.738;2022-07-04T07:32:58;96614.66;;;23.61;65.27
31357;BME280;60001;48.404;11.738;2022-07-04T07:34:29;96609.75;;;23.54;64.93
31357;BME280;60001;48.404;11.738;2022-07-04T07:36:01;96612.78;;;23.52;64.79
31357;BME280;60001;48.404;11.738;2022-07-04T07:37:33;96613.56;;;23.53;64.77
31357;BME280;60001;48.404;11.738;2022-07-04T07:39:05;96612.97;;;23.47;64.33
31357;BME280;60001;48.404;11.738;2022-07-04T07:40:37;96607.59;;;23.47;64.35
31357;BME280;60001;48.404;11.738;2022-07-04T07:42:08;96615.66;;;23.47;64.43
31357;BME280;60001;48.404;11.738;2022-07-04T07:43:40;96615.22;;;23.45;65.03
31357;BME280;60001;48.404;11.738;2022-07-04T07:45:12;96611.72;;;23.45;64.81
31357;BME280;60001;48.404;11.738;2022-07-04T07:46:45;96612.03;;;23.43;64.63
31357;BME280;60001;48.404;11.738;2022-07-04T07:48:17;96614.72;;;23.43;65.08
31357;BME280;60001;48.404;11.738;2022-07-04T07:49:49;96610.94;;;23.44;65.44
31357;BME280;60001;48.404;11.738;2022-07-04T07:51:24;96607.59;;;23.47;65.35
31357;BME280;60001;48.404;11.738;2022-07-04T07:52:56;96611.72;;;23.45;64.53
31357;BME280;60001;48.404;11.738;2022-07-04T07:54:27;96599.38;;;23.44;64.65
31357;BME280;60001;48.404;11.738;2022-07-04T07:55:59;96606.34;;;23.45;64.79
31357;BME280;60001;48.404;11.738;2022-07-04T07:57:31;96603.66;;;23.45;65.49
31357;BME280;60001;48.404;11.738;2022-07-04T07:59:03;96601.84;;;23.49;65.08
31357;BME280;60001;48.404;11.738;2022-07-04T08:00:35;96590.78;;;23.50;64.81
31357;BME280;60001;48.404;11.738;2022-07-04T08:02:09;96590.09;;;23.53;65.10
31357;BME280;60001;48.404;11.738;2022-07-04T08:03:41;96588.66;;;23.56;64.73
31357;BME280;60001;48.404;11.738;2022-07-04T08:05:30;96588.34;;;23.58;64.49